Time;durP1;ratioP1;P1;durP2;ratioP2;P2;SDS_P1;SDS_P2;PMS_P1;PMS_P2;Temp;Humidity;BMP_temperature;BMP_pressure;BME280_temperature;BME280_humidity;BME280_pressure;Samples;Min_cycle;Max_cycle;Signal;HPM_P1;HPM_P2
2022/10/23 00:03:56;;;;;;;6.20;2.88;;;;;;;;;;10503391;28;20044;-77
2022/10/23 00:09:00;;;;;;;6.57;3.97;;;;;;;;;;10486031;28;20040;-78
2022/10/23 00:14:07;;;;;;;5.97;3.40;;;;;;;;;;10486969;28;20501;-79
2022/10/23 00:19:10;;;;;;;4.85;3.03;;;;;;;;;;10515864;28;20442;-78
2022/10/23 00:24:14;;;;;;;3.63;2.17;;;;;;;;;;10495066;28;20037;-78
2022/10/23 00:29:18;;;;;;;3.85;2.50;;;;;;;;;;10475842;28;20051;-77
2022/10/23 00:34:22;;;;;;;4.05;2.08;;;;;;;;;;10513219;28;20062;-78
2022/10/23 00:39:25;;;;;;;4.32;2.15;;;;;;;;;;10474296;28;20092;-79
2022/10/23 00:45:10;;;;;;;4.45;2.00;;;;;;;;;;10504067;28;20048;-78
2022/10/23 00:50:14;;;;;;;3.83;2.00;;;;;;;;;;10501632;28;20507;-77
2022/10/23 00:55:19;;;;;;;5.78;2.72;;;;;;;;;;10480058;28;20400;-78
2022/10/23 01:00:26;;;;;;;6.23;2.10;;;;;;;;;;10494553;28;20056;-77
2022/10/23 01:05:34;;;;;;;6.40;1.92;;;;;;;;;;10487289;28;20299;-77
2022/10/23 01:10:43;;;;;;;5.47;1.95;;;;;;;;;;10495286;28;20710;-76
2022/10/23 01:15:53;;;;;;;2.85;1.75;;;;;;;;;;10473653;28;20528;-78
2022/10/23 01:21:02;;;;;;;4.22;1.48;;;;;;;;;;10493792;28;20123;-77
2022/10/23 01:26:25;;;;;;;2.67;1.48;;;;;;;;;;10495991;28;20435;-79
2022/10/23 01:31:36;;;;;;;2.40;1.40;;;;;;;;;;10486607;28;20094;-77
2022/10/23 01:36:44;;;;;;;7.75;2.30;;;;;;;;;;10495890;28;20040;-79
2022/10/23 01:41:51;;;;;;;2.92;1.50;;;;;;;;;;10519037;28;20461;-78
2022/10/23 01:47:03;;;;;;;3.00;1.90;;;;;;;;;;10506411;28;20680;-78
2022/10/23 01:52:13;;;;;;;3.00;1.52;;;;;;;;;;10477761;28;20040;-78
2022/10/23 01:57:22;;;;;;;2.90;1.48;;;;;;;;;;10511018;28;20048;-77
2022/10/23 02:02:27;;;;;;;4.20;1.77;;;;;;;;;;10503384;28;20127;-78
2022/10/23 02:07:31;;;;;;;4.25;1.75;;;;;;;;;;10512998;28;20040;-78
2022/10/23 02:12:46;;;;;;;7.45;1.48;;;;;;;;;;10496243;28;20496;-77
2022/10/23 02:18:02;;;;;;;3.28;1.58;;;;;;;;;;10513298;28;20551;-79
2022/10/23 02:23:17;;;;;;;5.60;2.05;;;;;;;;;;10498014;28;20047;-79
2022/10/23 02:28:25;;;;;;;8.07;1.85;;;;;;;;;;10514149;28;20044;-78
2022/10/23 02:33:35;;;;;;;3.58;1.27;;;;;;;;;;10496682;28;20055;-78
2022/10/23 02:38:40;;;;;;;5.47;1.60;;;;;;;;;;10522837;28;20701;-77
2022/10/23 02:43:51;;;;;;;3.03;1.48;;;;;;;;;;10512271;28;20036;-80
2022/10/23 02:49:02;;;;;;;2.70;1.50;;;;;;;;;;10500957;28;20048;-78
2022/10/23 02:54:08;;;;;;;2.42;1.30;;;;;;;;;;10518397;28;20424;-78
2022/10/23 02:59:20;;;;;;;2.55;1.30;;;;;;;;;;10492681;28;20064;-78
2022/10/23 03:04:27;;;;;;;6.55;1.60;;;;;;;;;;10505652;28;20041;-78
2022/10/23 03:09:31;;;;;;;2.58;1.40;;;;;;;;;;10517657;28;20127;-79
2022/10/23 03:14:34;;;;;;;3.88;1.60;;;;;;;;;;10511726;28;20492;-77
2022/10/23 03:19:39;;;;;;;1.55;1.13;;;;;;;;;;10502176;28;20451;-78
2022/10/23 03:24:43;;;;;;;2.00;1.20;;;;;;;;;;10504624;28;20044;-78
2022/10/23 03:29:46;;;;;;;1.70;1.10;;;;;;;;;;10516148;28;20040;-76
2022/10/23 03:34:52;;;;;;;2.42;1.20;;;;;;;;;;10487445;28;20037;-77
2022/10/23 03:39:57;;;;;;;;;;;;;;;;;;10508415;28;20033;-77
2022/10/23 03:45:00;;;;;;;2.70;1.20;;;;;;;;;;10490245;28;19924;-77
2022/10/23 03:50:06;;;;;;;1.23;1.10;;;;;;;;;;10502047;28;20099;-80
2022/10/23 03:55:09;;;;;;;3.07;1.50;;;;;;;;;;10490884;28;20032;-77
2022/10/23 04:00:14;;;;;;;3.22;1.67;;;;;;;;;;10481670;28;20059;-77
2022/10/23 04:05:23;;;;;;;5.35;2.05;;;;;;;;;;10492048;28;20502;-78
2022/10/23 04:10:30;;;;;;;5.10;2.25;;;;;;;;;;10510061;28;20059;-77
2022/10/23 04:15:33;;;;;;;3.03;1.50;;;;;;;;;;10525934;28;20044;-78
2022/10/23 04:20:39;;;;;;;1.60;1.30;;;;;;;;;;10507433;28;20062;-77
2022/10/23 04:25:42;;;;;;;2.58;1.35;;;;;;;;;;10477666;28;20555;-78
2022/10/23 04:30:46;;;;;;;1.73;1.60;;;;;;;;;;10484950;28;20504;-77
2022/10/23 04:35:51;;;;;;;8.02;1.33;;;;;;;;;;10486947;28;20044;-77
2022/10/23 04:40:54;;;;;;;2.67;1.20;;;;;;;;;;10517638;28;20036;-79
2022/10/23 04:45:58;;;;;;;3.97;1.90;;;;;;;;;;10499893;28;20439;-79
2022/10/23 04:51:05;;;;;;;3.58;1.25;;;;;;;;;;10497904;28;20048;-79
2022/10/23 04:56:31;;;;;;;1.58;1.23;;;;;;;;;;10488770;28;20068;-79
2022/10/23 05:01:41;;;;;;;2.10;1.40;;;;;;;;;;10468142;28;20049;-79
2022/10/23 05:06:46;;;;;;;4.13;2.42;;;;;;;;;;10493410;28;20036;-77
2022/10/23 05:11:57;;;;;;;4.07;2.38;;;;;;;;;;10468566;28;20048;-77
2022/10/23 05:17:02;;;;;;;5.22;2.50;;;;;;;;;;10474086;28;20044;-78
2022/10/23 05:22:09;;;;;;;4.35;1.77;;;;;;;;;;10497625;28;20044;-78
2022/10/23 05:27:25;;;;;;;4.82;1.85;;;;;;;;;;10484374;28;20052;-78
2022/10/23 05:32:32;;;;;;;5.40;1.40;;;;;;;;;;10492409;28;20102;-77
2022/10/23 05:37:38;;;;;;;3.08;1.55;;;;;;;;;;10473512;28;20512;-79
2022/10/23 05:42:46;;;;;;;2.05;1.40;;;;;;;;;;10488638;28;20086;-80
2022/10/23 05:47:52;;;;;;;;;;;;;;;;;;10486372;28;20044;-77
2022/10/23 05:53:26;;;;;;;3.35;1.17;;;;;;;;;;10476624;28;19995;-78
2022/10/23 05:58:52;;;;;;;1.85;1.05;;;;;;;;;;10485010;28;20076;-78
2022/10/23 06:04:14;;;;;;;4.45;1.00;;;;;;;;;;10477753;28;20048;-78
2022/10/23 06:09:39;;;;;;;0.95;0.88;;;;;;;;;;10485863;28;20570;-79
2022/10/23 06:14:42;;;;;;;1.70;1.33;;;;;;;;;;10504437;28;20041;-78
2022/10/23 06:19:46;;;;;;;1.58;1.30;;;;;;;;;;10493885;28;20050;-79
2022/10/23 06:24:54;;;;;;;0.90;0.73;;;;;;;;;;10490096;28;20052;-78
2022/10/23 06:30:01;;;;;;;1.08;0.98;;;;;;;;;;10483675;28;20040;-78
2022/10/23 06:35:05;;;;;;;1.10;1.00;;;;;;;;;;10491734;28;20037;-77
2022/10/23 06:40:11;;;;;;;4.68;1.23;;;;;;;;;;10476001;28;20438;-78
2022/10/23 06:45:28;;;;;;;0.98;0.90;;;;;;;;;;10470850;28;20056;-79
2022/10/23 06:50:52;;;;;;;0.80;0.80;;;;;;;;;;10496617;28;20522;-79
2022/10/23 06:56:05;;;;;;;0.95;0.82;;;;;;;;;;10475567;28;20083;-80
2022/10/23 07:01:12;;;;;;;0.73;0.73;;;;;;;;;;10501187;28;20131;-79
2022/10/23 07:06:18;;;;;;;0.77;0.73;;;;;;;;;;10502706;28;20047;-79
2022/10/23 07:11:23;;;;;;;0.77;0.77;;;;;;;;;;10500392;28;20044;-78
2022/10/23 07:16:26;;;;;;;1.92;1.20;;;;;;;;;;10481670;28;20447;-79
2022/10/23 07:21:33;;;;;;;0.73;0.70;;;;;;;;;;10477576;28;20075;-77
2022/10/23 07:26:54;;;;;;;0.63;0.63;;;;;;;;;;10488120;28;20127;-78
2022/10/23 07:32:00;;;;;;;0.50;0.50;;;;;;;;;;10491367;28;20048;-79
2022/10/23 07:37:06;;;;;;;0.95;0.70;;;;;;;;;;10508357;28;20044;-77
2022/10/23 07:42:15;;;;;;;0.63;0.60;;;;;;;;;;10512711;28;20330;-79
2022/10/23 07:47:18;;;;;;;0.60;0.60;;;;;;;;;;10496775;28;20067;-77
2022/10/23 07:52:25;;;;;;;0.47;0.47;;;;;;;;;;10491328;28;20045;-78
2022/10/23 07:57:46;;;;;;;1.38;0.50;;;;;;;;;;10470951;28;20455;-79
2022/10/23 08:03:00;;;;;;;0.70;0.65;;;;;;;;;;10481502;28;20041;-78
2022/10/23 08:08:03;;;;;;;0.63;0.63;;;;;;;;;;10505147;28;20044;-78
2022/10/23 08:13:11;;;;;;;0.73;0.73;;;;;;;;;;10500371;28;20068;-79
2022/10/23 08:18:33;;;;;;;1.00;0.70;;;;;;;;;;10510129;28;20516;-80
2022/10/23 08:23:37;;;;;;;2.40;0.80;;;;;;;;;;10491959;28;20036;-78
2022/10/23 08:28:42;;;;;;;0.80;0.47;;;;;;;;;;10511105;28;20033;-79
2022/10/23 08:33:46;;;;;;;0.60;0.60;;;;;;;;;;10499583;28;20052;-80
2022/10/23 08:38:56;;;;;;;0.88;0.88;;;;;;;;;;10503453;28;20042;-78
2022/10/23 08:44:09;;;;;;;1.07;0.97;;;;;;;;;;10503528;28;20040;-80
2022/10/23 08:49:25;;;;;;;0.55;0.52;;;;;;;;;;10472453;28;20123;-79
2022/10/23 08:54:44;;;;;;;0.88;0.75;;;;;;;;;;10500908;28;20068;-79
2022/10/23 08:59:53;;;;;;;2.83;0.98;;;;;;;;;;10512637;28;20043;-79
2022/10/23 09:04:58;;;;;;;2.15;1.38;;;;;;;;;;10530449;28;20523;-78
2022/10/23 09:10:16;;;;;;;1.25;1.10;;;;;;;;;;10526237;28;20036;-79
2022/10/23 09:15:30;;;;;;;1.48;1.10;;;;;;;;;;10513046;28;20056;-79
2022/10/23 09:20:35;;;;;;;1.33;1.23;;;;;;;;;;10508700;28;20052;-80
2022/10/23 09:25:41;;;;;;;1.88;0.90;;;;;;;;;;10496411;28;20036;-80
2022/10/23 09:30:46;;;;;;;1.60;1.33;;;;;;;;;;10499436;28;20051;-79
2022/10/23 09:35:55;;;;;;;1.75;0.80;;;;;;;;;;10516880;28;20628;-78
2022/10/23 09:41:01;;;;;;;1.20;0.77;;;;;;;;;;10507489;28;20043;-79
2022/10/23 09:46:08;;;;;;;1.08;0.98;;;;;;;;;;10504218;28;20577;-80
2022/10/23 09:51:18;;;;;;;0.90;0.90;;;;;;;;;;10515231;28;20038;-80
2022/10/23 09:56:27;;;;;;;1.42;1.33;;;;;;;;;;10494717;28;20515;-78
2022/10/23 10:01:34;;;;;;;3.63;1.05;;;;;;;;;;10505036;28;20032;-80
2022/10/23 10:07:00;;;;;;;1.42;1.30;;;;;;;;;;10510912;28;20032;-76
2022/10/23 10:12:26;;;;;;;3.45;1.95;;;;;;;;;;10507613;28;20519;-79
2022/10/23 10:17:39;;;;;;;2.97;1.80;;;;;;;;;;10501681;28;20051;-79
2022/10/23 10:22:49;;;;;;;1.90;1.48;;;;;;;;;;10487576;28;20412;-80
2022/10/23 10:28:03;;;;;;;2.10;1.65;;;;;;;;;;10508999;28;20068;-79
2022/10/23 10:33:17;;;;;;;1.10;1.00;;;;;;;;;;10491026;28;20052;-78
2022/10/23 10:38:46;;;;;;;1.67;1.40;;;;;;;;;;10507142;28;20098;-79
2022/10/23 10:44:00;;;;;;;1.52;1.20;;;;;;;;;;10494087;28;20052;-78
2022/10/23 10:49:12;;;;;;;1.13;1.02;;;;;;;;;;10497532;28;20388;-80
2022/10/23 10:54:40;;;;;;;1.88;1.30;;;;;;;;;;10501399;28;20044;-78
2022/10/23 10:59:46;;;;;;;2.45;1.45;;;;;;;;;;10504427;28;20668;-78
2022/10/23 11:04:52;;;;;;;;;;;;;;;;;;10485315;28;20048;-78
2022/10/23 11:09:57;;;;;;;;;;;;;;;;;;10478362;28;19929;-78
2022/10/23 11:15:01;;;;;;;2.35;1.17;;;;;;;;;;10490705;28;20303;-79
2022/10/23 11:20:25;;;;;;;2.70;1.02;;;;;;;;;;10486573;28;20036;-79
2022/10/23 11:25:57;;;;;;;1.75;1.02;;;;;;;;;;10524916;28;20056;-79
2022/10/23 11:31:09;;;;;;;1.80;0.77;;;;;;;;;;10500113;28;20036;-79
2022/10/23 11:36:18;;;;;;;1.60;0.60;;;;;;;;;;10508480;28;20115;-79
2022/10/23 11:41:25;;;;;;;1.13;0.60;;;;;;;;;;10523426;28;20036;-79
2022/10/23 11:46:31;;;;;;;0.73;0.55;;;;;;;;;;10513168;28;20520;-79
2022/10/23 11:51:37;;;;;;;0.85;0.63;;;;;;;;;;10527513;28;20594;-79
2022/10/23 11:56:50;;;;;;;;;;;;;;;;;;10505038;28;20044;-79
2022/10/23 12:01:56;;;;;;;2.25;0.88;;;;;;;;;;10504704;28;20007;-79
2022/10/23 12:07:04;;;;;;;1.52;0.80;;;;;;;;;;10494507;28;20140;-79
2022/10/23 12:12:17;;;;;;;2.65;0.88;;;;;;;;;;10498579;28;20044;-79
2022/10/23 12:17:34;;;;;;;2.05;0.90;;;;;;;;;;10490306;28;20041;-79
2022/10/23 12:22:47;;;;;;;1.85;0.77;;;;;;;;;;10470649;28;20045;-78
2022/10/23 12:27:58;;;;;;;6.07;0.90;;;;;;;;;;10527827;28;20419;-78
2022/10/23 12:33:21;;;;;;;1.67;0.90;;;;;;;;;;10495106;28;20040;-79
2022/10/23 12:38:28;;;;;;;1.00;0.90;;;;;;;;;;10509388;28;20040;-79
2022/10/23 12:43:36;;;;;;;2.45;0.77;;;;;;;;;;10503201;28;20047;-78
2022/10/23 12:48:49;;;;;;;2.15;0.80;;;;;;;;;;10486979;28;20029;-77
2022/10/23 12:54:02;;;;;;;2.58;0.90;;;;;;;;;;10501152;28;20044;-79
2022/10/23 12:59:11;;;;;;;1.98;1.02;;;;;;;;;;10511801;28;20036;-77
2022/10/23 13:04:23;;;;;;;3.33;1.17;;;;;;;;;;10507827;28;20044;-77
2022/10/23 13:09:32;;;;;;;1.83;0.75;;;;;;;;;;10515520;28;20036;-77
2022/10/23 13:15:02;;;;;;;5.00;1.25;;;;;;;;;;10517110;28;20048;-77
2022/10/23 13:20:26;;;;;;;1.50;0.93;;;;;;;;;;10510110;28;20040;-79
2022/10/23 13:25:33;;;;;;;0.93;0.60;;;;;;;;;;10482996;28;20540;-78
2022/10/23 13:30:38;;;;;;;1.63;0.90;;;;;;;;;;10495860;28;20390;-78
2022/10/23 13:35:42;;;;;;;1.80;0.90;;;;;;;;;;10494015;28;20504;-78
2022/10/23 13:40:56;;;;;;;2.80;0.90;;;;;;;;;;10525842;28;20078;-79
2022/10/23 13:46:00;;;;;;;2.80;1.40;;;;;;;;;;10527541;28;20039;-79
2022/10/23 13:51:13;;;;;;;5.20;1.60;;;;;;;;;;10499129;28;20048;-78
2022/10/23 13:56:20;;;;;;;1.58;0.77;;;;;;;;;;10482628;28;20044;-80
2022/10/23 14:01:26;;;;;;;1.65;0.90;;;;;;;;;;10501679;28;20048;-79
2022/10/23 14:06:30;;;;;;;1.05;0.73;;;;;;;;;;10517244;28;20047;-79
2022/10/23 14:11:34;;;;;;;2.67;0.85;;;;;;;;;;10488093;28;20044;-79
2022/10/23 14:16:38;;;;;;;0.95;0.60;;;;;;;;;;10534547;28;20070;-80
2022/10/23 14:21:42;;;;;;;3.80;0.90;;;;;;;;;;10525821;28;20872;-78
2022/10/23 14:26:46;;;;;;;2.90;1.02;;;;;;;;;;10535869;28;20419;-78
2022/10/23 14:31:50;;;;;;;1.77;1.05;;;;;;;;;;10513880;28;20049;-79
2022/10/23 14:36:53;;;;;;;2.08;0.80;;;;;;;;;;10524320;28;20055;-78
2022/10/23 14:42:11;;;;;;;1.08;0.60;;;;;;;;;;10517626;28;20113;-78
2022/10/23 14:47:14;;;;;;;1.10;0.80;;;;;;;;;;10480039;28;20087;-78
2022/10/23 14:52:18;;;;;;;1.80;0.90;;;;;;;;;;10479327;28;20045;-79
2022/10/23 14:57:22;;;;;;;1.05;0.75;;;;;;;;;;10483474;28;20043;-79
2022/10/23 15:02:26;;;;;;;2.40;0.85;;;;;;;;;;10499964;28;20043;-78
2022/10/23 15:07:29;;;;;;;5.57;1.30;;;;;;;;;;10501458;28;20044;-79
2022/10/23 15:12:34;;;;;;;6.25;3.10;;;;;;;;;;10496499;28;20044;-78
2022/10/23 15:17:37;;;;;;;4.38;2.28;;;;;;;;;;10491862;28;20044;-78
2022/10/23 15:22:41;;;;;;;3.80;1.38;;;;;;;;;;10490691;28;20447;-77
2022/10/23 15:27:47;;;;;;;2.55;0.90;;;;;;;;;;10498283;28;20033;-78
2022/10/23 15:32:50;;;;;;;2.90;1.40;;;;;;;;;;10495526;28;20498;-78
2022/10/23 15:37:53;;;;;;;1.50;1.00;;;;;;;;;;10483516;28;20040;-79
2022/10/23 15:42:58;;;;;;;2.70;1.13;;;;;;;;;;10487618;28;20055;-79
2022/10/23 15:48:01;;;;;;;1.42;0.93;;;;;;;;;;10504969;28;20044;-79
2022/10/23 15:53:04;;;;;;;2.45;0.57;;;;;;;;;;10498286;28;20043;-79
2022/10/23 15:58:10;;;;;;;3.80;1.55;;;;;;;;;;10482664;28;20037;-79
2022/10/23 16:03:13;;;;;;;1.10;0.53;;;;;;;;;;10493748;28;20051;-79
2022/10/23 16:08:16;;;;;;;1.45;0.70;;;;;;;;;;10512453;28;20048;-77
2022/10/23 16:13:21;;;;;;;1.90;0.95;;;;;;;;;;10515884;28;20123;-79
2022/10/23 16:18:24;;;;;;;1.23;1.02;;;;;;;;;;10510817;28;20041;-79
2022/10/23 16:23:28;;;;;;;1.75;1.10;;;;;;;;;;10491068;28;20408;-76
2022/10/23 16:28:33;;;;;;;3.15;1.50;;;;;;;;;;10488482;28;20094;-79
2022/10/23 16:33:36;;;;;;;3.45;1.55;;;;;;;;;;10495617;28;20036;-77
2022/10/23 16:38:39;;;;;;;2.35;1.23;;;;;;;;;;10497487;28;20679;-78
2022/10/23 16:43:44;;;;;;;1.92;1.20;;;;;;;;;;10486924;28;20047;-78
2022/10/23 16:49:06;;;;;;;2.03;1.00;;;;;;;;;;10521043;28;20072;-76
2022/10/23 16:54:10;;;;;;;4.33;1.30;;;;;;;;;;10529304;28;20044;-74
2022/10/23 16:59:15;;;;;;;2.97;0.90;;;;;;;;;;10494685;28;20045;-77
2022/10/23 17:04:18;;;;;;;1.33;0.70;;;;;;;;;;10498107;28;20045;-79
2022/10/23 17:09:22;;;;;;;1.63;0.80;;;;;;;;;;10527029;28;20529;-79
2022/10/23 17:14:28;;;;;;;0.75;0.60;;;;;;;;;;10497224;28;20060;-77
2022/10/23 17:19:33;;;;;;;2.05;0.90;;;;;;;;;;10477496;28;20040;-79
2022/10/23 17:24:46;;;;;;;1.27;0.70;;;;;;;;;;10478474;28;20044;-78
2022/10/23 17:29:51;;;;;;;1.77;0.63;;;;;;;;;;10522247;28;20128;-79
2022/10/23 17:34:54;;;;;;;3.28;1.20;;;;;;;;;;10489509;28;20051;-77
2022/10/23 17:40:01;;;;;;;1.65;0.70;;;;;;;;;;10495963;28;20427;-78
2022/10/23 17:45:07;;;;;;;1.90;0.70;;;;;;;;;;10498676;28;20602;-80
2022/10/23 17:50:11;;;;;;;4.38;1.02;;;;;;;;;;10505237;28;20055;-78
2022/10/23 17:55:15;;;;;;;2.15;0.70;;;;;;;;;;10499119;28;20395;-80
2022/10/23 18:00:20;;;;;;;3.03;0.80;;;;;;;;;;10490591;28;20071;-78
2022/10/23 18:05:23;;;;;;;1.85;0.98;;;;;;;;;;10493686;28;20969;-79
2022/10/23 18:10:26;;;;;;;1.52;0.77;;;;;;;;;;10483799;28;20037;-80
2022/10/23 18:15:34;;;;;;;5.40;1.30;;;;;;;;;;10497318;28;20094;-80
2022/10/23 18:20:40;;;;;;;1.98;0.80;;;;;;;;;;10525916;28;20040;-80
2022/10/23 18:25:45;;;;;;;3.58;1.20;;;;;;;;;;10509291;28;20043;-81
2022/10/23 18:30:50;;;;;;;4.38;1.13;;;;;;;;;;10505901;28;20048;-79
2022/10/23 18:35:54;;;;;;;3.72;1.23;;;;;;;;;;10511512;28;20039;-77
2022/10/23 18:40:58;;;;;;;3.08;0.80;;;;;;;;;;10525344;28;20040;-79
2022/10/23 18:46:04;;;;;;;3.70;0.90;;;;;;;;;;10493031;28;20045;-79
2022/10/23 18:51:13;;;;;;;1.90;1.10;;;;;;;;;;10484091;28;20041;-79
2022/10/23 18:56:23;;;;;;;3.58;0.93;;;;;;;;;;10481906;28;20063;-79
2022/10/23 19:01:29;;;;;;;2.65;0.68;;;;;;;;;;10499988;28;20052;-79
2022/10/23 19:06:32;;;;;;;;;;;;;;;;;;10523481;28;20044;-79
2022/10/23 19:11:37;;;;;;;4.43;0.70;;;;;;;;;;10473859;28;19920;-78
2022/10/23 19:16:45;;;;;;;1.73;0.77;;;;;;;;;;10512860;28;20071;-79
2022/10/23 19:21:49;;;;;;;4.13;0.88;;;;;;;;;;10496705;28;20060;-79
2022/10/23 19:26:54;;;;;;;2.63;0.95;;;;;;;;;;10508392;28;20040;-79
2022/10/23 19:31:58;;;;;;;2.75;0.77;;;;;;;;;;10515888;28;20036;-80
2022/10/23 19:37:02;;;;;;;2.58;1.10;;;;;;;;;;10542926;28;20048;-79
2022/10/23 19:42:07;;;;;;;2.63;0.70;;;;;;;;;;10513328;28;20043;-79
2022/10/23 19:47:12;;;;;;;2.20;1.13;;;;;;;;;;10502554;28;20040;-79
2022/10/23 19:52:15;;;;;;;3.60;1.48;;;;;;;;;;10527416;28;20074;-78
2022/10/23 19:57:18;;;;;;;2.08;0.90;;;;;;;;;;10502598;28;20049;-78
2022/10/23 20:02:24;;;;;;;2.40;0.85;;;;;;;;;;10498111;28;20457;-79
2022/10/23 20:07:27;;;;;;;5.10;1.40;;;;;;;;;;10505165;28;20139;-79
2022/10/23 20:12:30;;;;;;;3.85;1.30;;;;;;;;;;10529273;28;20032;-79
2022/10/23 20:17:35;;;;;;;2.42;1.20;;;;;;;;;;10512892;28;20059;-78
2022/10/23 20:22:39;;;;;;;2.58;1.10;;;;;;;;;;10453041;28;20091;-78
2022/10/23 20:27:42;;;;;;;5.22;1.13;;;;;;;;;;10514963;28;20064;-79
2022/10/23 20:32:47;;;;;;;3.15;1.05;;;;;;;;;;10494770;28;20029;-79
2022/10/23 20:37:50;;;;;;;1.38;0.85;;;;;;;;;;10512363;28;20436;-79
2022/10/23 20:42:53;;;;;;;1.77;0.70;;;;;;;;;;10506028;28;20036;-79
2022/10/23 20:47:58;;;;;;;1.67;0.90;;;;;;;;;;10514058;28;20048;-78
2022/10/23 20:53:01;;;;;;;1.50;0.80;;;;;;;;;;10513969;28;20512;-79
2022/10/23 20:58:04;;;;;;;1.52;1.02;;;;;;;;;;10500880;28;20045;-79
2022/10/23 21:03:09;;;;;;;6.63;1.45;;;;;;;;;;10485872;28;20061;-79
2022/10/23 21:08:12;;;;;;;4.00;0.90;;;;;;;;;;10514337;28;20041;-79
2022/10/23 21:13:16;;;;;;;6.32;1.20;;;;;;;;;;10496499;28;20777;-79
2022/10/23 21:18:23;;;;;;;3.58;1.27;;;;;;;;;;10498518;28;20039;-78
2022/10/23 21:23:29;;;;;;;6.18;1.30;;;;;;;;;;10484605;28;20400;-78
2022/10/23 21:28:32;;;;;;;2.70;0.85;;;;;;;;;;10494307;28;20600;-78
2022/10/23 21:33:37;;;;;;;3.38;1.10;;;;;;;;;;10501648;28;20040;-79
2022/10/23 21:38:40;;;;;;;3.20;1.02;;;;;;;;;;10500420;28;20045;-78
2022/10/23 21:43:44;;;;;;;4.88;1.02;;;;;;;;;;10515937;28;20044;-78
2022/10/23 21:48:49;;;;;;;3.60;0.95;;;;;;;;;;10524807;28;20047;-78
2022/10/23 21:53:53;;;;;;;1.25;1.00;;;;;;;;;;10511387;28;20047;-78
2022/10/23 21:58:57;;;;;;;2.80;1.10;;;;;;;;;;10475567;28;20052;-78
2022/10/23 22:04:02;;;;;;;3.08;1.38;;;;;;;;;;10505875;28;20032;-78
2022/10/23 22:09:06;;;;;;;4.72;1.20;;;;;;;;;;10484560;28;20424;-79
2022/10/23 22:14:09;;;;;;;2.70;0.77;;;;;;;;;;10458578;28;20465;-79
2022/10/23 22:19:16;;;;;;;3.50;1.15;;;;;;;;;;10492419;28;20051;-78
2022/10/23 22:24:19;;;;;;;;;;;;;;;;;;10504793;28;20117;-79
2022/10/23 22:29:25;;;;;;;2.75;0.90;;;;;;;;;;10489880;28;19923;-77
2022/10/23 22:34:31;;;;;;;2.70;1.05;;;;;;;;;;10489103;28;20094;-78
2022/10/23 22:39:51;;;;;;;3.58;1.20;;;;;;;;;;10530278;28;20074;-80
2022/10/23 22:44:54;;;;;;;2.05;0.80;;;;;;;;;;10489990;28;20036;-79
2022/10/23 22:49:59;;;;;;;2.17;1.08;;;;;;;;;;10531514;28;20051;-78
2022/10/23 22:55:02;;;;;;;5.65;1.20;;;;;;;;;;10510229;28;20044;-80
2022/10/23 23:00:07;;;;;;;4.32;1.27;;;;;;;;;;10525018;28;20127;-79
2022/10/23 23:05:12;;;;;;;2.70;1.08;;;;;;;;;;10526211;28;20504;-79
2022/10/23 23:10:15;;;;;;;2.17;0.82;;;;;;;;;;10516208;28;20055;-79
2022/10/23 23:15:19;;;;;;;1.85;0.90;;;;;;;;;;10515793;28;20488;-79
2022/10/23 23:20:23;;;;;;;5.00;0.98;;;;;;;;;;10519857;28;20071;-79
2022/10/23 23:25:27;;;;;;;1.85;1.02;;;;;;;;;;10522151;28;20067;-79
2022/10/23 23:30:30;;;;;;;2.40;0.93;;;;;;;;;;10498546;28;20053;-79
2022/10/23 23:35:38;;;;;;;4.05;1.30;;;;;;;;;;10530060;28;20701;-79
2022/10/23 23:40:49;;;;;;;4.72;1.15;;;;;;;;;;10516320;28;20036;-78
2022/10/23 23:45:52;;;;;;;3.78;1.23;;;;;;;;;;10524860;28;20048;-78
2022/10/23 23:50:57;;;;;;;2.42;1.50;;;;;;;;;;10484321;28;20059;-79
2022/10/23 23:56:00;;;;;;;2.75;1.45;;;;;;;;;;10500812;28;20044;-79
